»·PEaware :: SWR314 MGGT-MHTG

SWR314 :: MGGT-MHTG

FLIGHT INFORMATION

Flight Status: Arrived
Operator:
Swiss Airlines
More flights by this operator :: More flights under this callsign
Pilot: Timothy W. (9658)
Aircraft: AIRBUS A319
(A319)
More flights by this aircraft type
Origin: MGGT La Aurora Intl
Guatemala
Destination: MHTG Toncontin Intl
Honduras
More flights between these airports :: More routes between these airports
Route: PALEN LAGOX UA552 TNT
File this flight plan on PilotEdge
Remarks:
Altitude:
(Current/Filed)
33,000ft
Speed:
(Current/Filed)
450kts
Departed: 05-Feb-19 07:47 PM
Arrived: 05-Feb-19 08:36 PM
Distance/Time
Traveled:
195nm/0:49
Distance/Time
To Go:
Arrived

Flight Plot

Page will automatically refresh every two minutes.

Flight plan parsing failed; only flown route is shown


Map Options




Map Legend


Flown Route
Filed Route
Departure Airport
Arrival Airport
Navaid (VOR, NDB)
Fix

Horizontal Profiles

Position Reports

Time Latitude Longitude Heading Altitude Ground
Speed
05-Feb-19 19:22 14.589913 -90.529413 107 4961ft 0kts
05-Feb-19 19:23 14.589913 -90.529413 107 4961ft 0kts
05-Feb-19 19:24 14.589913 -90.529413 107 4961ft 0kts
05-Feb-19 19:25 14.589913 -90.529413 107 4961ft 0kts
05-Feb-19 19:26 14.589913 -90.529413 107 4961ft 0kts
05-Feb-19 19:27 14.589913 -90.529413 107 4961ft 0kts
05-Feb-19 19:28 14.589913 -90.529413 107 4961ft 0kts
05-Feb-19 19:29 14.589913 -90.529413 107 4961ft 0kts
05-Feb-19 19:30 14.589913 -90.529413 107 4961ft 0kts
05-Feb-19 19:31 14.589913 -90.529413 107 4961ft 0kts
05-Feb-19 19:32 14.589913 -90.529413 107 4961ft 0kts
05-Feb-19 19:33 14.589913 -90.529413 107 4961ft 0kts
05-Feb-19 19:34 14.589913 -90.529413 107 4961ft 0kts
05-Feb-19 19:35 14.590198 -90.529832 162 4961ft 2kts
05-Feb-19 19:36 14.590773 -90.529934 121 4961ft 2kts
05-Feb-19 19:37 14.591117 -90.529613 17 4961ft 0kts
05-Feb-19 19:38 14.591117 -90.529613 17 4961ft 0kts
05-Feb-19 19:39 14.591891 -90.529345 22 4961ft 10kts
05-Feb-19 19:40 14.591312 -90.526994 197 4961ft 11kts
05-Feb-19 19:41 14.587882 -90.527225 106 4961ft 15kts
05-Feb-19 19:42 14.584243 -90.527826 197 4961ft 21kts
05-Feb-19 19:43 14.578343 -90.529738 197 4961ft 20kts
05-Feb-19 19:44 14.573218 -90.531382 197 4961ft 16kts
05-Feb-19 19:45 14.571183 -90.531369 18 4961ft 7kts
05-Feb-19 19:46 14.601520 -90.521438 15 5982ft 169kts
05-Feb-19 19:47 14.648266 -90.503824 32 8495ft 216kts
05-Feb-19 19:48 14.693366 -90.449297 64 10764ft 292kts
05-Feb-19 19:49 14.695958 -90.362016 105 14025ft 328kts
05-Feb-19 19:50 14.634105 -90.289959 145 17044ft 359kts
05-Feb-19 19:51 14.548526 -90.233635 146 19748ft 376kts
05-Feb-19 19:52 14.508684 -90.138976 94 22050ft 384kts
05-Feb-19 19:53 14.491739 -90.027918 97 23227ft 395kts
05-Feb-19 19:54 14.474040 -89.917410 97 23234ft 395kts
05-Feb-19 19:55 14.456456 -89.805938 97 23234ft 395kts
05-Feb-19 19:56 14.438141 -89.692822 98 25106ft 408kts
05-Feb-19 19:57 14.419404 -89.577115 99 27038ft 422kts
05-Feb-19 19:58 14.399912 -89.456365 101 28845ft 434kts
05-Feb-19 19:59 14.379904 -89.332562 102 30580ft 443kts
05-Feb-19 20:00 14.359534 -89.206799 103 32244ft 450kts
05-Feb-19 20:01 14.338341 -89.077762 103 32963ft 473kts
05-Feb-19 20:02 14.315815 -88.940206 103 32962ft 496kts
05-Feb-19 20:03 14.293469 -88.803436 105 32962ft 483kts
05-Feb-19 20:04 14.271026 -88.667472 105 32962ft 483kts
05-Feb-19 20:05 14.248373 -88.531004 105 32555ft 483kts
05-Feb-19 20:06 14.225840 -88.395385 105 31564ft 480kts
05-Feb-19 20:07 14.203561 -88.261638 104 28271ft 470kts
05-Feb-19 20:08 14.181817 -88.131737 102 24237ft 461kts
05-Feb-19 20:09 14.160951 -88.006938 101 21211ft 428kts
05-Feb-19 20:10 14.141395 -87.890088 100 18782ft 404kts
05-Feb-19 20:11 14.122825 -87.777780 99 16407ft 394kts
05-Feb-19 20:12 14.104320 -87.667814 99 13682ft 389kts
05-Feb-19 20:13 14.086345 -87.563009 99 10561ft 388kts
05-Feb-19 20:14 14.069838 -87.467208 99 10033ft 310kts
05-Feb-19 20:15 14.056079 -87.387103 99 9634ft 274kts
05-Feb-19 20:16 14.042991 -87.311138 99 8326ft 270kts
05-Feb-19 20:17 14.031241 -87.240880 89 7991ft 232kts
05-Feb-19 20:18 14.070716 -87.192174 41 7999ft 233kts
05-Feb-19 20:19 14.124881 -87.158817 1 7997ft 237kts
05-Feb-19 20:20 14.185434 -87.183935 314 8002ft 244kts
05-Feb-19 20:21 14.185242 -87.256581 259 7451ft 292kts
05-Feb-19 20:22 14.160708 -87.332950 209 6767ft 288kts
05-Feb-19 20:24 14.090520 -87.319689 143 6002ft 260kts
05-Feb-19 20:25 14.051663 -87.265322 121 4583ft 213kts
05-Feb-19 20:26 14.046172 -87.223793 29 4273ft 148kts
05-Feb-19 20:27 14.105392 -87.208975 9 4686ft 305kts
05-Feb-19 20:28 14.189614 -87.205335 15 7764ft 281kts
05-Feb-19 20:29 14.263036 -87.202431 316 7992ft 290kts
05-Feb-19 20:30 14.249455 -87.272731 212 8008ft 293kts
05-Feb-19 20:31 14.182292 -87.317925 211 7122ft 271kts
05-Feb-19 20:32 14.122975 -87.335374 156 6768ft 192kts
05-Feb-19 20:33 14.078899 -87.308102 123 5631ft 178kts
05-Feb-19 20:34 14.055007 -87.270481 120 4745ft 147kts
05-Feb-19 20:35 14.038694 -87.234268 75 3852ft 142kts
05-Feb-19 20:36 14.064507 -87.215873 19 3256ft 24kts
05-Feb-19 20:37 14.065335 -87.216462 198 3251ft 1kts
05-Feb-19 20:38 14.063370 -87.217132 197 3267ft 17kts
05-Feb-19 20:39 14.060575 -87.218835 289 3287ft 0kts
05-Feb-19 20:40 14.060575 -87.218835 289 3287ft 0kts
05-Feb-19 20:41 14.060575 -87.218835 289 3287ft 0kts
05-Feb-19 20:42 14.060575 -87.218835 289 3287ft 0kts
05-Feb-19 20:42 14.060575 -87.218835 289 3287ft 0kts

Navigation Log

Ident Type
Flight plan parsing failed, navigation log unavailable